Aeroporto :
LOGIN :

Iscrizione | Disclaimer

   EN    FR    IT 

 










Sommario :    VFR   VFR Marginale   IFR   IFR Intensivo   IFR Molto Intensivo
Visibilità : 
Base nubi : 
>= 8 km
>= 3000ft
5 / 8 km
1000 / 3000 ft
1500m / 5 km
500 / 1000 ft
800 / 1500m
200 / 500 ft
< 800m
< 200 ft
Simboli :   Temporali  Nebbia  Neve Forte  Precipitazioni Forti  Vento > 20 kt
SIGMETs :   Varie  Temporali  Ghiacco  Turbolenza  Onda orograficha  Ceneri Vulcaniche






- Altitudine del aeroporto : 568 ft


UUMO - Ostafyevo International

ULTIMO METAR :
  • 041000Z 26003MPS 220V280 9999 BKN036 03/02 Q1014 R26/290050 NOSIG RMK QFE745/0993

METARs OBSOLETI :
  • 040930Z 30002MPS 280V350 CAVOK 03/02 Q1014 R26/290050 NOSIG RMK QFE745/0993
  • 040900Z 30008MPS 8000 -SHSN OVC020CB 03/M01 Q1013 R26/090060 TEMPO -TSRASN OVC015CB RMK QFE744/0993
  • 040830Z 31007MPS 9999 BKN033CB 05/M02 Q1012 R26/090060 TEMPO -TSRASN OVC015CB RMK QFE744/0992
  • 040800Z 31003MPS 280V360 9999 BKN050 05/M04 Q1012 R26/090060 TEMPO -TSRASN OVC015CB RMK QFE744/0992
  • 040730Z 30004MPS 260V350 9999 SCT043 07/M06 Q1011 R26/090060 NOSIG RMK QFE743/0991

TAF TAF UUMO
Valido dal 04 a 09 ore il 04 a 18 ore UTC


040757Z 0409/0418 27005G10MPS 6000 -SHRA BKN020CB
TEMPO 0409/0414 32008G13MPS 2000 TSSNRA BKN010 SCT015CB
BECMG 0414/0416 9999 NSW



MetMap, La meteo Aeronautica in un colpo d'occhio ! - Copyright ORBIFLY Dicembre 2007 - Disclaimer

ORBIFLY MET'MAP TEAM :

Programmazione e sviluppo : Alexandra Zaïnal
Concezione : Baudouin d'Aumeries
Aiuto per la programmazione : Marc-Olivier Méhu
Supporto tecnico e logistico : Manuel Goepfert
Aiuto per la traduzione : Arnaldo La Scala

Contatto : metmap@orbifly.com




FONTI E CREDITI :

   NOAA